Wednesday, February 22, 2017, 12:23 PM EST

KPHF, Williamsburg International Airport

Location: Newport News, VA, United States Lat: 37.133
Local Time: 12:23 PM EST (17:23 GMT) Lon: -76.5
Time Zone: US/Eastern Elev: 42 ft

Show me the last for .
Show Decoded

2017-02-22 11:54 METAR KPHF 221654Z 22006KT 10SM SCT048 SCT100 18/10 A3001 RMK AO2 SLP162
                 T01780100 =
2017-02-22 10:54 METAR KPHF 221554Z 23008KT 10SM FEW033 16/10 A3004 RMK AO2 SLP171 T01610100 =
2017-02-22 09:54 METAR KPHF 221454Z 20005KT 10SM SCT065 16/10 A3004 RMK AO2 SLP173 T01560100
                 58002 =
2017-02-22 08:54 METAR KPHF 221354Z 00000KT 10SM OVC070 12/09 A3006 RMK AO2 SLP177 T01170094 =
2017-02-22 07:54 METAR KPHF 221254Z 00000KT 8SM FEW038 BKN065 08/07 A3006 RMK AO2 SLP179
                 T00830072 =
2017-02-22 06:54 METAR KPHF 221154Z 00000KT 6SM BR FEW080 06/05 A3005 RMK AO2 SLP176 7////
                 T00560050 10061 20044 55003 =
2017-02-22 05:54 METAR KPHF 221054Z 00000KT 10SM SCT070 06/05 A3005 RMK AO2 SLP175 T00560050 =
2017-02-22 04:54 METAR KPHF 220954Z 00000KT 10SM BKN070 06/05 A3005 RMK AO2 SLP175 T00560050 =
2017-02-22 03:54 METAR KPHF 220854Z 00000KT 10SM CLR 06/05 A3006 RMK AO2 SLP178 T00560050 56018 =
2017-02-22 02:54 METAR KPHF 220754Z 00000KT 10SM CLR 06/04 A3007 RMK AO2 SLP182 T00560044 =
2017-02-22 01:54 METAR KPHF 220654Z 01003KT 9SM CLR 05/04 A3009 RMK AO2 SLP189 T00500044 =
2017-02-22 00:54 METAR KPHF 220554Z 00000KT 9SM CLR 06/04 A3011 RMK AO2 SLPNO T00560044 10078
                 20044 56024 =
2017-02-21 23:54 METAR KPHF 220454Z 00000KT 10SM CLR 06/04 A3012 RMK AO2 SLP199 T00560044
                 401280011 =
2017-02-21 22:54 METAR KPHF 220354Z 00000KT 10SM CLR 07/05 A3015 RMK AO2 SLP208 T00670050 =
2017-02-21 21:54 METAR KPHF 220254Z 00000KT 10SM CLR 07/05 A3018 RMK AO2 SLP219 T00670050 58006 =
2017-02-21 20:54 METAR KPHF 220154Z 10003KT 10SM CLR 07/04 A3019 RMK AO2 SLP224 T00670044 =
2017-02-21 19:54 METAR KPHF 220054Z 09004KT 10SM CLR 08/04 A3019 RMK AO2 SLP225 T00780044 =
2017-02-21 18:54 METAR KPHF 212354Z 10007KT 10SM CLR 08/04 A3020 RMK AO2 SLP226 6//// T00780039
                 10128 20078 56004 =
2017-02-21 17:54 METAR KPHF 212254Z 11007KT 10SM CLR 09/03 A3020 RMK AO2 SLP228 T00890033 =
2017-02-21 16:54 METAR KPHF 212154Z 12010KT 10SM CLR 11/03 A3020 RMK AO2 SLP226 T01060028 =
2017-02-21 15:54 METAR KPHF 212054Z 12007KT 10SM CLR 12/03 A3021 RMK AO2 SLP230 6//// T01170033
                 56022 =
2017-02-21 14:54 METAR KPHF 211954Z 08007KT 10SM CLR 12/02 A3023 RMK AO2 SLP235 T01220022 =
2017-02-21 13:54 METAR KPHF 211854Z CLR 13/03 A3024 RMK AO2 SLP240 T01280033 $ =
2017-02-21 12:54 METAR KPHF 211754Z A3027 RMK AO2 SLPNO 6//// 58016 PNO $ =

Support USWX by starting your Amazon purchase here.